createdAt,value
2022-11-05T00:01:16.100Z,7.99
2022-11-05T00:06:36.725Z,8.00
2022-11-05T00:11:57.091Z,7.92
2022-11-05T00:16:58.713Z,7.90
2022-11-05T00:22:19.367Z,7.82
2022-11-05T00:27:21.001Z,7.88
2022-11-05T00:32:24.717Z,7.78
2022-11-05T00:37:29.902Z,7.73
2022-11-05T00:42:51.971Z,7.61
2022-11-05T00:48:12.371Z,7.61
2022-11-05T00:53:14.353Z,7.52
2022-11-05T00:58:21.839Z,7.48
2022-11-05T01:03:33.469Z,7.49
2022-11-05T01:08:35.321Z,7.43
2022-11-05T01:13:38.242Z,7.47
2022-11-05T01:18:39.931Z,7.49
2022-11-05T01:23:41.974Z,7.46
2022-11-05T01:28:43.609Z,7.45
2022-11-05T01:33:46.340Z,7.41
2022-11-05T01:38:48.002Z,7.43
2022-11-05T01:43:54.940Z,7.43
2022-11-05T01:49:07.038Z,7.42
2022-11-05T01:54:13.650Z,7.30
2022-11-05T01:59:23.302Z,7.36
2022-11-05T02:04:31.948Z,7.32
2022-11-05T02:09:39.538Z,7.18
2022-11-05T02:14:41.239Z,7.29
2022-11-05T02:20:07.465Z,7.34
2022-11-05T02:25:15.074Z,7.30
2022-11-05T02:30:35.704Z,7.28
2022-11-05T02:35:49.639Z,7.10
2022-11-05T02:41:03.425Z,7.23
2022-11-05T02:46:14.796Z,7.23
2022-11-05T02:51:27.127Z,7.21
2022-11-05T02:56:40.080Z,7.13
2022-11-05T03:01:43.915Z,7.10
2022-11-05T03:06:51.215Z,7.32
2022-11-05T03:12:28.674Z,7.45
2022-11-05T03:17:38.012Z,7.36
2022-11-05T03:22:54.440Z,7.30
2022-11-05T03:28:03.626Z,7.30
2022-11-05T03:33:11.982Z,7.25
2022-11-05T03:38:21.577Z,7.26
2022-11-05T03:43:28.637Z,7.30
2022-11-05T03:48:33.325Z,7.36
2022-11-05T03:53:44.477Z,7.38
2022-11-05T03:58:47.365Z,7.38
2022-11-05T04:03:48.985Z,7.36
2022-11-05T04:09:09.569Z,7.32
2022-11-05T04:14:11.217Z,7.27
2022-11-05T04:19:12.872Z,7.29
2022-11-05T04:24:14.724Z,7.33
2022-11-05T04:29:35.042Z,7.09
2022-11-05T04:34:36.606Z,6.93
2022-11-05T04:39:38.204Z,7.02
2022-11-05T04:44:40.058Z,7.05
2022-11-05T04:49:41.821Z,6.96
2022-11-05T04:54:44.191Z,6.76
2022-11-05T04:59:49.571Z,6.82
2022-11-05T05:04:51.287Z,6.90
2022-11-05T05:09:54.967Z,6.90
2022-11-05T05:14:57.279Z,6.94
2022-11-05T05:20:17.774Z,6.94
2022-11-05T05:25:19.437Z,7.05
2022-11-05T05:30:21.094Z,7.02
2022-11-05T05:35:22.920Z,7.05
2022-11-05T05:40:24.832Z,7.15
2022-11-05T05:45:26.556Z,7.11
2022-11-05T05:50:28.249Z,7.18
2022-11-05T05:55:29.929Z,7.19
2022-11-05T06:01:05.687Z,7.24
2022-11-05T06:06:13.058Z,7.17
2022-11-05T06:11:15.163Z,7.10
2022-11-05T06:16:19.613Z,7.13
2022-11-05T06:21:21.375Z,6.98
2022-11-05T06:26:23.150Z,6.93
2022-11-05T06:31:25.210Z,6.88
2022-11-05T06:36:26.905Z,6.94
2022-11-05T06:41:28.632Z,6.97
2022-11-05T06:46:30.474Z,6.93
2022-11-05T06:51:32.308Z,6.77
2022-11-05T06:56:35.448Z,6.72
2022-11-05T07:01:37.602Z,6.72
2022-11-05T07:06:39.505Z,6.69
2022-11-05T07:11:41.385Z,6.76
2022-11-05T07:16:43.221Z,6.72
2022-11-05T07:21:48.386Z,6.65
2022-11-05T07:26:50.262Z,6.80
2022-11-05T07:31:52.042Z,6.85
2022-11-05T07:36:53.717Z,6.89
2022-11-05T07:41:56.008Z,6.84
2022-11-05T07:46:57.894Z,6.95
2022-11-05T07:51:59.618Z,6.96
2022-11-05T07:57:01.544Z,6.94
2022-11-05T08:02:03.375Z,6.94
2022-11-05T08:07:05.724Z,7.00
2022-11-05T08:12:08.599Z,7.15
2022-11-05T08:17:11.612Z,7.33
2022-11-05T08:22:15.456Z,7.56
2022-11-05T08:27:17.181Z,7.67
2022-11-05T08:32:19.068Z,7.71
2022-11-05T08:37:20.785Z,7.81
2022-11-05T08:42:22.554Z,7.74
2022-11-05T08:47:25.230Z,7.69
2022-11-05T08:52:26.946Z,7.69
2022-11-05T08:57:28.731Z,7.68
2022-11-05T09:02:30.579Z,7.71
2022-11-05T09:07:32.446Z,7.85
2022-11-05T09:12:34.325Z,8.02
2022-11-05T09:17:36.404Z,8.26
2022-11-05T09:22:43.081Z,8.46
2022-11-05T09:27:45.223Z,8.47
2022-11-05T09:32:46.932Z,8.50
2022-11-05T09:37:48.524Z,8.58
2022-11-05T09:42:52.588Z,8.64
2022-11-05T09:48:09.973Z,8.68
2022-11-05T09:53:22.237Z,8.80
2022-11-05T09:58:43.684Z,8.84
2022-11-05T10:03:49.841Z,8.85
2022-11-05T10:09:03.558Z,8.84
2022-11-05T10:14:20.160Z,8.79
2022-11-05T10:19:30.448Z,8.64
2022-11-05T10:24:32.108Z,8.56
2022-11-05T10:29:35.030Z,8.58
2022-11-05T10:34:39.275Z,8.62
2022-11-05T10:39:41.105Z,8.71
2022-11-05T10:45:08.110Z,8.82
2022-11-05T10:50:18.800Z,8.86
2022-11-05T10:55:45.486Z,8.90
2022-11-05T11:00:50.279Z,8.86
2022-11-05T11:05:59.909Z,8.88
2022-11-05T11:11:11.457Z,8.96
2022-11-05T11:16:15.966Z,8.98
2022-11-05T11:21:26.388Z,8.97
2022-11-05T11:26:39.928Z,9.02
2022-11-05T11:31:42.096Z,9.01
2022-11-05T11:36:46.685Z,9.10
2022-11-05T11:41:54.917Z,9.25
2022-11-05T11:47:02.100Z,9.37
2022-11-05T11:52:11.321Z,9.40
2022-11-05T11:57:29.433Z,9.52
2022-11-05T12:02:44.837Z,9.49
2022-11-05T12:07:53.024Z,9.43
2022-11-05T12:13:00.564Z,9.31
2022-11-05T12:18:06.096Z,9.36
2022-11-05T12:23:28.829Z,9.47
2022-11-05T12:29:17.986Z,9.53
2022-11-05T12:34:47.929Z,9.45
2022-11-05T12:40:31.281Z,9.37
2022-11-05T12:46:06.538Z,9.37
2022-11-05T12:51:23.760Z,9.34
2022-11-05T12:56:37.882Z,9.32
2022-11-05T13:01:57.889Z,9.37
2022-11-05T13:07:05.405Z,9.40
2022-11-05T13:12:17.576Z,9.40
2022-11-05T13:17:29.801Z,9.38
2022-11-05T13:22:42.868Z,9.43
2022-11-05T13:27:52.278Z,9.46
2022-11-05T13:33:10.809Z,9.45
2022-11-05T13:38:44.292Z,9.38
2022-11-05T13:44:20.264Z,9.39
2022-11-05T13:49:39.276Z,9.38
2022-11-05T13:55:12.553Z,9.39
2022-11-05T14:00:21.202Z,9.37
2022-11-05T14:05:27.112Z,9.29
2022-11-05T14:10:56.925Z,9.33
2022-11-05T14:16:16.928Z,9.35
2022-11-05T14:21:27.400Z,9.19
2022-11-05T14:26:33.164Z,9.13
2022-11-05T14:32:07.674Z,9.21
2022-11-05T14:37:11.857Z,9.13
2022-11-05T14:42:18.793Z,9.21
2022-11-05T14:47:23.085Z,9.12
2022-11-05T14:52:24.727Z,9.07
2022-11-05T14:57:44.522Z,8.99
2022-11-05T15:02:56.909Z,8.99
2022-11-05T15:07:59.376Z,8.97
2022-11-05T15:13:06.332Z,8.99
2022-11-05T15:18:38.906Z,8.90
2022-11-05T15:23:45.259Z,8.77
2022-11-05T15:28:54.164Z,8.72
2022-11-05T15:34:22.680Z,8.61
2022-11-05T15:39:40.385Z,8.63
2022-11-05T15:44:47.574Z,8.59
2022-11-05T15:49:56.095Z,8.52
2022-11-05T15:55:14.844Z,8.54
2022-11-05T16:00:23.638Z,8.46
2022-11-05T16:05:27.872Z,8.50
2022-11-05T16:10:33.351Z,8.51
2022-11-05T16:15:35.268Z,8.44
2022-11-05T16:20:38.681Z,8.48
2022-11-05T16:25:43.723Z,8.40
2022-11-05T16:31:12.057Z,8.39
2022-11-05T16:36:13.870Z,8.38
2022-11-05T16:41:18.540Z,8.30
2022-11-05T16:46:23.287Z,8.31
2022-11-05T16:51:28.220Z,8.33
2022-11-05T16:56:30.914Z,8.32
2022-11-05T17:01:34.380Z,8.34
2022-11-05T17:06:36.137Z,8.31
2022-11-05T17:11:37.758Z,8.29
2022-11-05T17:16:40.497Z,8.27
2022-11-05T17:21:42.174Z,8.26
2022-11-05T17:26:43.929Z,8.25
2022-11-05T17:31:45.623Z,8.21
2022-11-05T17:36:47.285Z,8.16
2022-11-05T17:41:49.069Z,8.23
2022-11-05T17:46:51.301Z,8.26
2022-11-05T17:51:52.978Z,8.25
2022-11-05T17:56:54.722Z,8.19
2022-11-05T18:01:56.676Z,8.19
2022-11-05T18:06:58.510Z,8.23
2022-11-05T18:12:00.316Z,8.16
2022-11-05T18:17:02.121Z,8.15
2022-11-05T18:22:03.846Z,8.14
2022-11-05T18:27:05.503Z,8.17
2022-11-05T18:32:07.197Z,8.09
2022-11-05T18:37:08.809Z,8.14
2022-11-05T18:42:10.827Z,8.14
2022-11-05T18:47:15.927Z,8.19
2022-11-05T18:52:17.650Z,8.10
2022-11-05T18:57:20.755Z,8.13
2022-11-05T19:02:30.066Z,8.12
2022-11-05T19:07:31.852Z,8.12
2022-11-05T19:12:33.500Z,8.12
2022-11-05T19:17:36.304Z,8.14
2022-11-05T19:22:40.807Z,8.21
2022-11-05T19:27:43.722Z,8.23
2022-11-05T19:32:45.509Z,8.26
2022-11-05T19:37:47.157Z,8.23
2022-11-05T19:42:48.829Z,8.25
2022-11-05T19:47:50.648Z,8.27
2022-11-05T19:52:54.206Z,8.29
2022-11-05T19:57:56.577Z,8.29
2022-11-05T20:02:58.442Z,8.31
2022-11-05T20:08:00.469Z,8.32
2022-11-05T20:13:02.259Z,8.31
2022-11-05T20:18:04.033Z,8.26
2022-11-05T20:23:05.700Z,8.27
2022-11-05T20:28:07.438Z,8.27
2022-11-05T20:33:11.776Z,8.24
2022-11-05T20:38:13.918Z,8.25
2022-11-05T20:43:16.051Z,8.27
2022-11-05T20:48:17.808Z,8.25
2022-11-05T20:53:19.719Z,8.26
2022-11-05T20:58:21.457Z,8.31
2022-11-05T21:03:24.361Z,8.26
2022-11-05T21:08:27.599Z,8.25
2022-11-05T21:13:30.363Z,8.29
2022-11-05T21:18:34.354Z,8.21
2022-11-05T21:23:36.302Z,8.20
2022-11-05T21:28:40.759Z,8.16
2022-11-05T21:33:42.618Z,8.15
2022-11-05T21:38:44.281Z,8.16
2022-11-05T21:43:45.978Z,8.19
2022-11-05T21:49:10.929Z,8.30
2022-11-05T21:54:31.369Z,8.23
2022-11-05T21:59:48.530Z,8.22
2022-11-05T22:04:52.940Z,8.29
2022-11-05T22:09:55.209Z,8.28
2022-11-05T22:14:57.240Z,8.33
2022-11-05T22:19:58.864Z,8.38
2022-11-05T22:25:00.535Z,8.37
2022-11-05T22:30:02.221Z,8.39
2022-11-05T22:35:04.081Z,8.33
2022-11-05T22:40:06.431Z,8.35
2022-11-05T22:45:08.582Z,8.34
2022-11-05T22:50:10.803Z,8.36
2022-11-05T22:55:12.510Z,8.36
2022-11-05T23:00:20.141Z,8.40
2022-11-05T23:05:21.822Z,8.39
2022-11-05T23:10:42.452Z,8.40
2022-11-05T23:16:02.660Z,8.39
2022-11-05T23:21:23.371Z,8.46
2022-11-05T23:26:43.610Z,8.34
2022-11-05T23:32:04.106Z,8.32
2022-11-05T23:37:24.642Z,8.26
2022-11-05T23:42:44.888Z,8.31
2022-11-05T23:48:05.237Z,8.29
2022-11-05T23:53:08.665Z,8.34
2022-11-05T23:58:10.922Z,8.26
